sensor_id;sensor_type;location;lat;lon;timestamp;P1;durP1;ratioP1;P2;durP2;ratioP2
62990;SDS011;49084;48.204;16.202;2022-11-11T00:02:21;37.00;;;17.40;;
62990;SDS011;49084;48.204;16.202;2022-11-11T00:04:46;33.35;;;17.77;;
62990;SDS011;49084;48.204;16.202;2022-11-11T00:07:12;34.22;;;18.27;;
62990;SDS011;49084;48.204;16.202;2022-11-11T00:09:38;33.38;;;17.98;;
62990;SDS011;49084;48.204;16.202;2022-11-11T00:12:03;32.17;;;17.27;;
62990;SDS011;49084;48.204;16.202;2022-11-11T00:14:29;31.95;;;17.25;;
62990;SDS011;49084;48.204;16.202;2022-11-11T00:16:55;32.92;;;17.23;;
62990;SDS011;49084;48.204;16.202;2022-11-11T00:19:39;38.10;;;18.17;;
62990;SDS011;49084;48.204;16.202;2022-11-11T00:22:23;40.10;;;17.38;;
62990;SDS011;49084;48.204;16.202;2022-11-11T00:25:07;33.30;;;17.27;;
62990;SDS011;49084;48.204;16.202;2022-11-11T00:27:34;36.60;;;17.38;;
62990;SDS011;49084;48.204;16.202;2022-11-11T00:30:00;32.22;;;17.00;;
62990;SDS011;49084;48.204;16.202;2022-11-11T00:32:26;34.17;;;16.70;;
62990;SDS011;49084;48.204;16.202;2022-11-11T00:34:53;30.60;;;16.48;;
62990;SDS011;49084;48.204;16.202;2022-11-11T00:37:39;32.50;;;17.17;;
62990;SDS011;49084;48.204;16.202;2022-11-11T00:40:05;31.02;;;17.83;;
62990;SDS011;49084;48.204;16.202;2022-11-11T00:42:32;31.10;;;16.60;;
62990;SDS011;49084;48.204;16.202;2022-11-11T00:44:57;31.92;;;16.60;;
62990;SDS011;49084;48.204;16.202;2022-11-11T00:47:23;27.73;;;15.27;;
62990;SDS011;49084;48.204;16.202;2022-11-11T00:50:12;29.52;;;15.90;;
62990;SDS011;49084;48.204;16.202;2022-11-11T00:52:58;34.25;;;17.00;;
62990;SDS011;49084;48.204;16.202;2022-11-11T00:55:23;28.77;;;15.38;;
62990;SDS011;49084;48.204;16.202;2022-11-11T00:57:49;28.52;;;15.10;;
62990;SDS011;49084;48.204;16.202;2022-11-11T01:00:15;32.22;;;14.88;;
62990;SDS011;49084;48.204;16.202;2022-11-11T01:02:40;42.53;;;15.75;;
62990;SDS011;49084;48.204;16.202;2022-11-11T01:05:06;28.80;;;15.77;;
62990;SDS011;49084;48.204;16.202;2022-11-11T01:07:32;30.85;;;15.68;;
62990;SDS011;49084;48.204;16.202;2022-11-11T01:09:58;28.88;;;15.32;;
62990;SDS011;49084;48.204;16.202;2022-11-11T01:12:23;31.00;;;14.82;;
62990;SDS011;49084;48.204;16.202;2022-11-11T01:14:49;26.50;;;14.40;;
62990;SDS011;49084;48.204;16.202;2022-11-11T01:17:15;29.45;;;15.38;;
62990;SDS011;49084;48.204;16.202;2022-11-11T01:19:40;26.25;;;14.93;;
62990;SDS011;49084;48.204;16.202;2022-11-11T01:22:06;28.20;;;15.25;;
62990;SDS011;49084;48.204;16.202;2022-11-11T01:24:32;32.35;;;15.38;;
62990;SDS011;49084;48.204;16.202;2022-11-11T01:26:57;27.75;;;14.55;;
62990;SDS011;49084;48.204;16.202;2022-11-11T01:29:23;25.77;;;13.90;;
62990;SDS011;49084;48.204;16.202;2022-11-11T01:31:48;26.65;;;14.60;;
62990;SDS011;49084;48.204;16.202;2022-11-11T01:34:14;27.83;;;14.15;;
62990;SDS011;49084;48.204;16.202;2022-11-11T01:36:40;26.85;;;14.60;;
62990;SDS011;49084;48.204;16.202;2022-11-11T01:39:05;28.70;;;14.05;;
62990;SDS011;49084;48.204;16.202;2022-11-11T01:41:32;23.48;;;13.63;;
62990;SDS011;49084;48.204;16.202;2022-11-11T01:59:52;24.75;;;12.93;;
62990;SDS011;49084;48.204;16.202;2022-11-11T02:02:42;21.95;;;13.18;;
62990;SDS011;49084;48.204;16.202;2022-11-11T02:05:13;26.20;;;12.35;;
62990;SDS011;49084;48.204;16.202;2022-11-11T02:07:58;26.02;;;12.32;;
62990;SDS011;49084;48.204;16.202;2022-11-11T02:10:28;23.73;;;11.75;;
62990;SDS011;49084;48.204;16.202;2022-11-11T02:12:56;19.80;;;11.90;;
62990;SDS011;49084;48.204;16.202;2022-11-11T02:15:40;21.98;;;12.65;;
62990;SDS011;49084;48.204;16.202;2022-11-11T02:18:06;20.10;;;12.00;;
62990;SDS011;49084;48.204;16.202;2022-11-11T02:20:41;20.85;;;12.02;;
62990;SDS011;49084;48.204;16.202;2022-11-11T02:23:16;26.98;;;12.02;;
62990;SDS011;49084;48.204;16.202;2022-11-11T02:25:51;25.05;;;12.38;;
62990;SDS011;49084;48.204;16.202;2022-11-11T02:28:20;19.60;;;11.43;;
62990;SDS011;49084;48.204;16.202;2022-11-11T02:30:47;18.95;;;11.82;;
62990;SDS011;49084;48.204;16.202;2022-11-11T02:33:13;23.90;;;12.35;;
62990;SDS011;49084;48.204;16.202;2022-11-11T02:35:43;22.05;;;12.18;;
62990;SDS011;49084;48.204;16.202;2022-11-11T02:38:19;20.95;;;11.63;;
62990;SDS011;49084;48.204;16.202;2022-11-11T02:40:44;20.48;;;11.70;;
62990;SDS011;49084;48.204;16.202;2022-11-11T02:43:32;21.55;;;12.07;;
62990;SDS011;49084;48.204;16.202;2022-11-11T02:45:58;22.98;;;12.13;;
62990;SDS011;49084;48.204;16.202;2022-11-11T02:48:25;23.63;;;11.80;;
62990;SDS011;49084;48.204;16.202;2022-11-11T02:50:52;20.52;;;11.88;;
62990;SDS011;49084;48.204;16.202;2022-11-11T02:53:17;22.92;;;11.40;;
62990;SDS011;49084;48.204;16.202;2022-11-11T02:55:44;24.55;;;11.23;;
62990;SDS011;49084;48.204;16.202;2022-11-11T02:58:09;25.77;;;11.80;;
62990;SDS011;49084;48.204;16.202;2022-11-11T03:00:35;18.70;;;10.50;;
62990;SDS011;49084;48.204;16.202;2022-11-11T03:03:01;19.08;;;10.82;;
62990;SDS011;49084;48.204;16.202;2022-11-11T03:05:26;21.45;;;10.95;;
62990;SDS011;49084;48.204;16.202;2022-11-11T03:07:52;19.85;;;10.23;;
62990;SDS011;49084;48.204;16.202;2022-11-11T03:10:18;18.80;;;11.32;;
62990;SDS011;49084;48.204;16.202;2022-11-11T03:12:43;21.27;;;10.93;;
62990;SDS011;49084;48.204;16.202;2022-11-11T03:15:09;23.33;;;11.70;;
62990;SDS011;49084;48.204;16.202;2022-11-11T03:17:35;19.90;;;11.93;;
62990;SDS011;49084;48.204;16.202;2022-11-11T03:20:04;17.48;;;10.90;;
62990;SDS011;49084;48.204;16.202;2022-11-11T03:23:02;20.98;;;11.25;;
62990;SDS011;49084;48.204;16.202;2022-11-11T03:25:33;21.05;;;11.80;;
62990;SDS011;49084;48.204;16.202;2022-11-11T03:28:23;19.63;;;11.23;;
62990;SDS011;49084;48.204;16.202;2022-11-11T03:30:51;23.40;;;12.27;;
62990;SDS011;49084;48.204;16.202;2022-11-11T03:33:18;22.83;;;11.68;;
62990;SDS011;49084;48.204;16.202;2022-11-11T03:35:46;21.27;;;10.40;;
62990;SDS011;49084;48.204;16.202;2022-11-11T03:38:13;18.40;;;9.93;;
62990;SDS011;49084;48.204;16.202;2022-11-11T03:40:49;23.67;;;10.50;;
62990;SDS011;49084;48.204;16.202;2022-11-11T03:43:17;19.05;;;9.55;;
62990;SDS011;49084;48.204;16.202;2022-11-11T03:45:44;21.92;;;11.05;;
62990;SDS011;49084;48.204;16.202;2022-11-11T03:48:10;24.02;;;11.80;;
62990;SDS011;49084;48.204;16.202;2022-11-11T03:50:36;19.83;;;10.57;;
62990;SDS011;49084;48.204;16.202;2022-11-11T03:53:02;17.58;;;10.02;;
62990;SDS011;49084;48.204;16.202;2022-11-11T03:55:28;23.10;;;9.73;;
62990;SDS011;49084;48.204;16.202;2022-11-11T03:57:54;22.77;;;10.38;;
62990;SDS011;49084;48.204;16.202;2022-11-11T04:00:21;23.30;;;10.30;;
62990;SDS011;49084;48.204;16.202;2022-11-11T04:02:59;29.52;;;10.25;;
62990;SDS011;49084;48.204;16.202;2022-11-11T04:05:49;21.70;;;10.88;;
62990;SDS011;49084;48.204;16.202;2022-11-11T04:08:33;20.10;;;10.32;;
62990;SDS011;49084;48.204;16.202;2022-11-11T04:11:24;24.30;;;10.38;;
62990;SDS011;49084;48.204;16.202;2022-11-11T04:13:53;19.40;;;10.07;;
62990;SDS011;49084;48.204;16.202;2022-11-11T04:16:41;21.73;;;10.43;;
62990;SDS011;49084;48.204;16.202;2022-11-11T04:19:07;21.77;;;10.63;;
62990;SDS011;49084;48.204;16.202;2022-11-11T04:21:51;19.60;;;9.60;;
62990;SDS011;49084;48.204;16.202;2022-11-11T04:24:18;21.00;;;10.73;;
62990;SDS011;49084;48.204;16.202;2022-11-11T04:27:08;19.88;;;10.18;;
62990;SDS011;49084;48.204;16.202;2022-11-11T04:29:38;17.90;;;9.40;;
62990;SDS011;49084;48.204;16.202;2022-11-11T04:32:05;20.38;;;10.60;;
62990;SDS011;49084;48.204;16.202;2022-11-11T04:35:11;18.17;;;9.73;;
62990;SDS011;49084;48.204;16.202;2022-11-11T04:37:55;22.55;;;10.77;;
62990;SDS011;49084;48.204;16.202;2022-11-11T04:40:41;19.73;;;10.60;;
62990;SDS011;49084;48.204;16.202;2022-11-11T04:43:25;21.75;;;10.43;;
62990;SDS011;49084;48.204;16.202;2022-11-11T04:45:50;20.13;;;11.27;;
62990;SDS011;49084;48.204;16.202;2022-11-11T04:48:16;19.67;;;10.07;;
62990;SDS011;49084;48.204;16.202;2022-11-11T04:50:42;25.88;;;11.10;;
62990;SDS011;49084;48.204;16.202;2022-11-11T04:53:09;18.30;;;10.98;;
62990;SDS011;49084;48.204;16.202;2022-11-11T04:55:41;22.80;;;10.85;;
62990;SDS011;49084;48.204;16.202;2022-11-11T04:58:27;19.23;;;10.90;;
62990;SDS011;49084;48.204;16.202;2022-11-11T05:00:54;20.95;;;10.60;;
62990;SDS011;49084;48.204;16.202;2022-11-11T05:03:19;21.45;;;10.13;;
62990;SDS011;49084;48.204;16.202;2022-11-11T05:08:38;20.10;;;11.32;;
62990;SDS011;49084;48.204;16.202;2022-11-11T05:11:27;22.17;;;11.18;;
62990;SDS011;49084;48.204;16.202;2022-11-11T05:14:02;22.80;;;11.13;;
62990;SDS011;49084;48.204;16.202;2022-11-11T05:16:53;26.05;;;10.95;;
62990;SDS011;49084;48.204;16.202;2022-11-11T05:19:39;22.35;;;11.18;;
62990;SDS011;49084;48.204;16.202;2022-11-11T05:22:34;20.40;;;11.27;;
62990;SDS011;49084;48.204;16.202;2022-11-11T05:25:02;19.67;;;11.07;;
62990;SDS011;49084;48.204;16.202;2022-11-11T05:27:47;20.52;;;11.25;;
62990;SDS011;49084;48.204;16.202;2022-11-11T05:30:13;19.33;;;10.85;;
62990;SDS011;49084;48.204;16.202;2022-11-11T05:32:41;23.08;;;12.07;;
62990;SDS011;49084;48.204;16.202;2022-11-11T05:35:07;23.27;;;10.98;;
62990;SDS011;49084;48.204;16.202;2022-11-11T05:37:34;20.58;;;11.65;;
62990;SDS011;49084;48.204;16.202;2022-11-11T05:40:00;21.88;;;12.18;;
62990;SDS011;49084;48.204;16.202;2022-11-11T05:42:25;25.73;;;12.82;;
62990;SDS011;49084;48.204;16.202;2022-11-11T05:44:51;26.23;;;11.75;;
62990;SDS011;49084;48.204;16.202;2022-11-11T05:47:17;29.48;;;12.23;;
62990;SDS011;49084;48.204;16.202;2022-11-11T05:49:42;20.35;;;11.50;;
62990;SDS011;49084;48.204;16.202;2022-11-11T05:52:09;26.80;;;12.48;;
62990;SDS011;49084;48.204;16.202;2022-11-11T05:54:37;26.55;;;12.20;;
62990;SDS011;49084;48.204;16.202;2022-11-11T05:57:04;26.38;;;12.75;;
62990;SDS011;49084;48.204;16.202;2022-11-11T05:59:30;22.33;;;12.55;;
62990;SDS011;49084;48.204;16.202;2022-11-11T06:01:55;25.92;;;13.30;;
62990;SDS011;49084;48.204;16.202;2022-11-11T06:04:21;26.55;;;13.25;;
62990;SDS011;49084;48.204;16.202;2022-11-11T06:06:47;23.33;;;12.88;;
62990;SDS011;49084;48.204;16.202;2022-11-11T06:09:12;26.27;;;11.88;;
62990;SDS011;49084;48.204;16.202;2022-11-11T06:11:38;22.90;;;12.13;;
62990;SDS011;49084;48.204;16.202;2022-11-11T06:14:03;21.23;;;11.35;;
62990;SDS011;49084;48.204;16.202;2022-11-11T06:16:29;24.17;;;12.65;;
62990;SDS011;49084;48.204;16.202;2022-11-11T06:18:55;23.75;;;12.20;;
62990;SDS011;49084;48.204;16.202;2022-11-11T06:21:20;34.03;;;15.57;;
62990;SDS011;49084;48.204;16.202;2022-11-11T06:23:46;30.45;;;13.50;;
62990;SDS011;49084;48.204;16.202;2022-11-11T06:26:12;33.15;;;13.80;;
62990;SDS011;49084;48.204;16.202;2022-11-11T06:28:54;29.90;;;12.95;;
62990;SDS011;49084;48.204;16.202;2022-11-11T06:31:24;27.50;;;14.05;;
62990;SDS011;49084;48.204;16.202;2022-11-11T06:33:51;27.95;;;12.90;;
62990;SDS011;49084;48.204;16.202;2022-11-11T06:36:18;30.80;;;14.02;;
62990;SDS011;49084;48.204;16.202;2022-11-11T06:38:48;25.95;;;15.15;;
62990;SDS011;49084;48.204;16.202;2022-11-11T06:41:13;29.00;;;13.95;;
62990;SDS011;49084;48.204;16.202;2022-11-11T06:43:40;25.75;;;14.50;;
62990;SDS011;49084;48.204;16.202;2022-11-11T06:48:40;26.80;;;12.77;;
62990;SDS011;49084;48.204;16.202;2022-11-11T06:51:08;28.40;;;13.60;;
62990;SDS011;49084;48.204;16.202;2022-11-11T06:53:35;29.50;;;13.63;;
62990;SDS011;49084;48.204;16.202;2022-11-11T06:56:01;24.35;;;13.77;;
62990;SDS011;49084;48.204;16.202;2022-11-11T06:58:27;24.10;;;11.93;;
62990;SDS011;49084;48.204;16.202;2022-11-11T07:00:52;29.98;;;13.48;;
62990;SDS011;49084;48.204;16.202;2022-11-11T07:03:19;25.50;;;13.15;;
62990;SDS011;49084;48.204;16.202;2022-11-11T07:05:46;27.83;;;13.80;;
62990;SDS011;49084;48.204;16.202;2022-11-11T07:08:13;25.92;;;13.43;;
62990;SDS011;49084;48.204;16.202;2022-11-11T07:10:42;28.08;;;12.90;;
62990;SDS011;49084;48.204;16.202;2022-11-11T07:15:35;26.48;;;12.23;;
62990;SDS011;49084;48.204;16.202;2022-11-11T07:18:01;23.85;;;12.75;;
62990;SDS011;49084;48.204;16.202;2022-11-11T07:20:27;21.20;;;11.65;;
62990;SDS011;49084;48.204;16.202;2022-11-11T07:22:53;20.98;;;11.48;;
62990;SDS011;49084;48.204;16.202;2022-11-11T07:25:20;24.27;;;13.13;;
62990;SDS011;49084;48.204;16.202;2022-11-11T07:27:45;22.15;;;11.82;;
62990;SDS011;49084;48.204;16.202;2022-11-11T07:30:11;24.63;;;11.73;;
62990;SDS011;49084;48.204;16.202;2022-11-11T07:32:43;20.10;;;11.55;;
62990;SDS011;49084;48.204;16.202;2022-11-11T07:35:15;23.17;;;11.80;;
62990;SDS011;49084;48.204;16.202;2022-11-11T07:37:42;17.23;;;10.32;;
62990;SDS011;49084;48.204;16.202;2022-11-11T07:40:09;17.02;;;10.23;;
62990;SDS011;49084;48.204;16.202;2022-11-11T07:42:37;17.02;;;10.63;;
62990;SDS011;49084;48.204;16.202;2022-11-11T07:45:04;14.95;;;9.57;;
62990;SDS011;49084;48.204;16.202;2022-11-11T07:47:31;19.15;;;9.80;;
62990;SDS011;49084;48.204;16.202;2022-11-11T07:49:58;13.40;;;9.25;;
62990;SDS011;49084;48.204;16.202;2022-11-11T07:52:24;16.13;;;8.55;;
62990;SDS011;49084;48.204;16.202;2022-11-11T07:54:50;13.43;;;8.43;;
62990;SDS011;49084;48.204;16.202;2022-11-11T07:57:15;19.77;;;9.40;;
62990;SDS011;49084;48.204;16.202;2022-11-11T07:59:41;19.88;;;9.45;;
62990;SDS011;49084;48.204;16.202;2022-11-11T08:02:09;14.98;;;8.80;;
62990;SDS011;49084;48.204;16.202;2022-11-11T08:04:35;12.88;;;9.18;;
62990;SDS011;49084;48.204;16.202;2022-11-11T08:07:01;15.10;;;8.63;;
62990;SDS011;49084;48.204;16.202;2022-11-11T08:09:28;15.68;;;9.23;;
62990;SDS011;49084;48.204;16.202;2022-11-11T08:11:54;16.73;;;8.32;;
62990;SDS011;49084;48.204;16.202;2022-11-11T08:14:38;16.50;;;8.88;;
62990;SDS011;49084;48.204;16.202;2022-11-11T08:17:04;15.20;;;9.35;;
62990;SDS011;49084;48.204;16.202;2022-11-11T08:19:30;23.77;;;9.63;;
62990;SDS011;49084;48.204;16.202;2022-11-11T08:21:55;15.05;;;9.60;;
62990;SDS011;49084;48.204;16.202;2022-11-11T08:24:21;17.60;;;8.68;;
62990;SDS011;49084;48.204;16.202;2022-11-11T08:26:47;19.92;;;8.90;;
62990;SDS011;49084;48.204;16.202;2022-11-11T08:29:14;14.85;;;8.93;;
62990;SDS011;49084;48.204;16.202;2022-11-11T08:31:40;12.98;;;8.75;;
62990;SDS011;49084;48.204;16.202;2022-11-11T08:34:05;18.23;;;9.07;;
62990;SDS011;49084;48.204;16.202;2022-11-11T08:36:32;12.55;;;8.23;;
62990;SDS011;49084;48.204;16.202;2022-11-11T08:38:57;16.83;;;9.15;;
62990;SDS011;49084;48.204;16.202;2022-11-11T08:41:23;18.00;;;8.88;;
62990;SDS011;49084;48.204;16.202;2022-11-11T08:43:53;16.88;;;9.45;;
62990;SDS011;49084;48.204;16.202;2022-11-11T08:46:19;12.30;;;8.13;;
62990;SDS011;49084;48.204;16.202;2022-11-11T08:48:46;13.32;;;8.35;;
62990;SDS011;49084;48.204;16.202;2022-11-11T08:51:12;16.35;;;8.80;;
62990;SDS011;49084;48.204;16.202;2022-11-11T08:53:38;12.50;;;8.27;;
62990;SDS011;49084;48.204;16.202;2022-11-11T08:56:04;16.42;;;8.82;;
62990;SDS011;49084;48.204;16.202;2022-11-11T08:58:30;15.43;;;7.70;;
62990;SDS011;49084;48.204;16.202;2022-11-11T09:00:56;15.65;;;8.75;;
62990;SDS011;49084;48.204;16.202;2022-11-11T09:03:21;16.58;;;7.25;;
62990;SDS011;49084;48.204;16.202;2022-11-11T09:05:47;13.15;;;7.93;;
62990;SDS011;49084;48.204;16.202;2022-11-11T09:08:13;13.13;;;7.25;;
62990;SDS011;49084;48.204;16.202;2022-11-11T09:10:38;14.63;;;7.43;;
62990;SDS011;49084;48.204;16.202;2022-11-11T09:13:04;14.48;;;7.50;;
62990;SDS011;49084;48.204;16.202;2022-11-11T09:15:30;13.05;;;6.72;;
62990;SDS011;49084;48.204;16.202;2022-11-11T09:17:57;8.65;;;5.78;;
62990;SDS011;49084;48.204;16.202;2022-11-11T09:20:23;10.90;;;6.25;;
62990;SDS011;49084;48.204;16.202;2022-11-11T09:22:49;12.40;;;6.40;;
62990;SDS011;49084;48.204;16.202;2022-11-11T09:25:17;10.75;;;5.93;;
62990;SDS011;49084;48.204;16.202;2022-11-11T09:27:43;9.45;;;5.47;;
62990;SDS011;49084;48.204;16.202;2022-11-11T09:30:09;15.07;;;6.03;;
62990;SDS011;49084;48.204;16.202;2022-11-11T09:32:35;7.97;;;5.22;;
62990;SDS011;49084;48.204;16.202;2022-11-11T09:35:02;8.10;;;4.85;;
62990;SDS011;49084;48.204;16.202;2022-11-11T09:37:28;11.05;;;4.60;;
62990;SDS011;49084;48.204;16.202;2022-11-11T09:39:53;11.00;;;4.68;;
62990;SDS011;49084;48.204;16.202;2022-11-11T09:45:01;7.57;;;4.22;;
62990;SDS011;49084;48.204;16.202;2022-11-11T09:47:54;8.73;;;4.28;;
62990;SDS011;49084;48.204;16.202;2022-11-11T09:50:30;6.65;;;3.42;;
62990;SDS011;49084;48.204;16.202;2022-11-11T09:53:00;8.75;;;4.18;;
62990;SDS011;49084;48.204;16.202;2022-11-11T09:55:35;7.15;;;3.40;;
62990;SDS011;49084;48.204;16.202;2022-11-11T10:00:47;5.80;;;3.15;;
62990;SDS011;49084;48.204;16.202;2022-11-11T10:03:19;3.22;;;2.38;;
62990;SDS011;49084;48.204;16.202;2022-11-11T10:05:48;5.22;;;2.78;;
62990;SDS011;49084;48.204;16.202;2022-11-11T10:08:36;8.75;;;3.75;;
62990;SDS011;49084;48.204;16.202;2022-11-11T10:11:26;10.40;;;5.18;;
62990;SDS011;49084;48.204;16.202;2022-11-11T10:13:59;6.35;;;3.25;;
62990;SDS011;49084;48.204;16.202;2022-11-11T10:21:53;6.47;;;2.70;;
62990;SDS011;49084;48.204;16.202;2022-11-11T10:25:24;5.15;;;2.88;;
62990;SDS011;49084;48.204;16.202;2022-11-11T10:27:27;5.88;;;2.92;;
62990;SDS011;49084;48.204;16.202;2022-11-11T10:29:54;7.47;;;2.67;;
62990;SDS011;49084;48.204;16.202;2022-11-11T10:32:21;5.47;;;2.45;;
62990;SDS011;49084;48.204;16.202;2022-11-11T10:34:52;2.80;;;1.80;;
62990;SDS011;49084;48.204;16.202;2022-11-11T10:37:22;5.75;;;2.15;;
62990;SDS011;49084;48.204;16.202;2022-11-11T10:39:59;6.22;;;2.05;;
62990;SDS011;49084;48.204;16.202;2022-11-11T10:42:31;3.17;;;2.10;;
62990;SDS011;49084;48.204;16.202;2022-11-11T10:45:00;9.45;;;3.60;;
62990;SDS011;49084;48.204;16.202;2022-11-11T10:53:03;11.88;;;3.00;;
62990;SDS011;49084;48.204;16.202;2022-11-11T10:55:50;4.55;;;1.73;;
62990;SDS011;49084;48.204;16.202;2022-11-11T10:58:31;3.28;;;1.50;;
62990;SDS011;49084;48.204;16.202;2022-11-11T11:01:06;5.90;;;2.60;;
62990;SDS011;49084;48.204;16.202;2022-11-11T11:03:39;3.97;;;1.83;;
62990;SDS011;49084;48.204;16.202;2022-11-11T11:06:10;5.60;;;1.40;;
62990;SDS011;49084;48.204;16.202;2022-11-11T11:08:52;4.63;;;2.30;;
62990;SDS011;49084;48.204;16.202;2022-11-11T11:11:23;1.20;;;0.93;;
62990;SDS011;49084;48.204;16.202;2022-11-11T11:13:59;3.60;;;1.00;;
62990;SDS011;49084;48.204;16.202;2022-11-11T11:16:31;0.98;;;0.50;;
62990;SDS011;49084;48.204;16.202;2022-11-11T11:24:20;2.67;;;1.00;;
62990;SDS011;49084;48.204;16.202;2022-11-11T11:26:46;3.97;;;0.98;;
62990;SDS011;49084;48.204;16.202;2022-11-11T11:29:22;1.50;;;0.70;;
62990;SDS011;49084;48.204;16.202;2022-11-11T11:32:14;3.72;;;1.00;;
62990;SDS011;49084;48.204;16.202;2022-11-11T11:34:49;2.33;;;0.70;;
62990;SDS011;49084;48.204;16.202;2022-11-11T11:37:19;2.65;;;0.98;;
62990;SDS011;49084;48.204;16.202;2022-11-11T11:39:47;4.20;;;0.77;;
62990;SDS011;49084;48.204;16.202;2022-11-11T11:50:46;1.27;;;0.50;;
62990;SDS011;49084;48.204;16.202;2022-11-11T11:53:21;3.78;;;0.82;;
62990;SDS011;49084;48.204;16.202;2022-11-11T11:58:39;4.65;;;0.95;;
62990;SDS011;49084;48.204;16.202;2022-11-11T12:01:17;2.90;;;1.13;;
62990;SDS011;49084;48.204;16.202;2022-11-11T12:15:05;1.80;;;0.70;;
62990;SDS011;49084;48.204;16.202;2022-11-11T12:20:26;4.72;;;0.60;;
62990;SDS011;49084;48.204;16.202;2022-11-11T12:39:46;2.10;;;1.00;;
62990;SDS011;49084;48.204;16.202;2022-11-11T12:45:25;2.80;;;0.88;;
62990;SDS011;49084;48.204;16.202;2022-11-11T12:51:00;3.33;;;0.90;;
62990;SDS011;49084;48.204;16.202;2022-11-11T12:53:51;6.32;;;1.10;;
62990;SDS011;49084;48.204;16.202;2022-11-11T13:15:44;2.58;;;1.08;;
62990;SDS011;49084;48.204;16.202;2022-11-11T13:18:14;6.63;;;0.90;;
62990;SDS011;49084;48.204;16.202;2022-11-11T13:21:17;4.45;;;1.00;;
62990;SDS011;49084;48.204;16.202;2022-11-11T13:23:37;4.47;;;0.82;;
62990;SDS011;49084;48.204;16.202;2022-11-11T13:26:03;2.90;;;1.20;;
62990;SDS011;49084;48.204;16.202;2022-11-11T13:28:38;1.83;;;0.98;;
62990;SDS011;49084;48.204;16.202;2022-11-11T13:33:41;3.05;;;0.80;;
62990;SDS011;49084;48.204;16.202;2022-11-11T13:36:15;4.88;;;1.00;;
62990;SDS011;49084;48.204;16.202;2022-11-11T13:41:21;3.35;;;1.30;;
62990;SDS011;49084;48.204;16.202;2022-11-11T13:43:54;1.95;;;0.70;;
62990;SDS011;49084;48.204;16.202;2022-11-11T13:46:37;4.05;;;0.82;;
62990;SDS011;49084;48.204;16.202;2022-11-11T13:49:07;2.80;;;1.13;;
62990;SDS011;49084;48.204;16.202;2022-11-11T13:51:43;5.97;;;0.88;;
62990;SDS011;49084;48.204;16.202;2022-11-11T13:56:53;9.23;;;1.00;;
62990;SDS011;49084;48.204;16.202;2022-11-11T13:59:31;5.00;;;2.15;;
62990;SDS011;49084;48.204;16.202;2022-11-11T14:15:52;4.15;;;1.02;;
62990;SDS011;49084;48.204;16.202;2022-11-11T14:20:49;3.47;;;0.93;;
62990;SDS011;49084;48.204;16.202;2022-11-11T14:25:42;3.72;;;1.08;;
62990;SDS011;49084;48.204;16.202;2022-11-11T14:30:58;6.20;;;1.58;;
62990;SDS011;49084;48.204;16.202;2022-11-11T14:42:02;1.27;;;0.80;;
62990;SDS011;49084;48.204;16.202;2022-11-11T14:57:38;6.80;;;1.90;;
62990;SDS011;49084;48.204;16.202;2022-11-11T15:00:10;4.65;;;1.50;;
62990;SDS011;49084;48.204;16.202;2022-11-11T15:02:40;3.65;;;1.38;;
62990;SDS011;49084;48.204;16.202;2022-11-11T15:05:13;5.68;;;1.10;;
62990;SDS011;49084;48.204;16.202;2022-11-11T15:15:33;2.75;;;1.20;;
62990;SDS011;49084;48.204;16.202;2022-11-11T15:31:41;3.08;;;1.30;;
62990;SDS011;49084;48.204;16.202;2022-11-11T15:34:34;4.25;;;1.40;;
62990;SDS011;49084;48.204;16.202;2022-11-11T15:37:38;3.95;;;1.80;;
62990;SDS011;49084;48.204;16.202;2022-11-11T15:40:05;8.32;;;2.00;;
62990;SDS011;49084;48.204;16.202;2022-11-11T15:42:38;2.90;;;1.70;;
62990;SDS011;49084;48.204;16.202;2022-11-11T15:45:20;5.45;;;2.00;;
62990;SDS011;49084;48.204;16.202;2022-11-11T15:47:52;6.18;;;1.85;;
62990;SDS011;49084;48.204;16.202;2022-11-11T15:52:53;7.07;;;2.20;;
62990;SDS011;49084;48.204;16.202;2022-11-11T15:55:27;5.10;;;1.77;;
62990;SDS011;49084;48.204;16.202;2022-11-11T15:58:06;5.93;;;2.22;;
62990;SDS011;49084;48.204;16.202;2022-11-11T16:00:44;4.13;;;2.10;;
62990;SDS011;49084;48.204;16.202;2022-11-11T16:03:30;3.80;;;2.05;;
62990;SDS011;49084;48.204;16.202;2022-11-11T16:06:00;3.13;;;1.63;;
62990;SDS011;49084;48.204;16.202;2022-11-11T16:08:28;3.38;;;1.55;;
62990;SDS011;49084;48.204;16.202;2022-11-11T16:10:58;7.72;;;1.30;;
62990;SDS011;49084;48.204;16.202;2022-11-11T16:13:26;7.55;;;2.28;;
62990;SDS011;49084;48.204;16.202;2022-11-11T16:16:02;6.70;;;2.70;;
62990;SDS011;49084;48.204;16.202;2022-11-11T16:18:39;8.10;;;3.17;;
62990;SDS011;49084;48.204;16.202;2022-11-11T16:21:09;7.93;;;3.92;;
62990;SDS011;49084;48.204;16.202;2022-11-11T16:23:45;12.02;;;3.55;;
62990;SDS011;49084;48.204;16.202;2022-11-11T16:26:12;9.10;;;4.68;;
62990;SDS011;49084;48.204;16.202;2022-11-11T16:33:46;11.65;;;5.10;;
62990;SDS011;49084;48.204;16.202;2022-11-11T16:36:11;11.63;;;5.00;;
62990;SDS011;49084;48.204;16.202;2022-11-11T16:38:37;13.75;;;6.30;;
62990;SDS011;49084;48.204;16.202;2022-11-11T16:43:55;10.52;;;6.30;;
62990;SDS011;49084;48.204;16.202;2022-11-11T16:48:59;16.65;;;6.78;;
62990;SDS011;49084;48.204;16.202;2022-11-11T16:54:53;13.20;;;7.43;;
62990;SDS011;49084;48.204;16.202;2022-11-11T16:57:24;12.45;;;5.95;;
62990;SDS011;49084;48.204;16.202;2022-11-11T16:59:54;8.18;;;4.97;;
62990;SDS011;49084;48.204;16.202;2022-11-11T17:02:26;16.20;;;6.20;;
62990;SDS011;49084;48.204;16.202;2022-11-11T17:04:53;10.60;;;6.05;;
62990;SDS011;49084;48.204;16.202;2022-11-11T17:07:33;11.63;;;7.33;;
62990;SDS011;49084;48.204;16.202;2022-11-11T17:12:33;12.98;;;7.60;;
62990;SDS011;49084;48.204;16.202;2022-11-11T17:15:01;20.55;;;8.02;;
62990;SDS011;49084;48.204;16.202;2022-11-11T17:17:33;17.17;;;7.78;;
62990;SDS011;49084;48.204;16.202;2022-11-11T17:20:00;16.50;;;8.07;;
62990;SDS011;49084;48.204;16.202;2022-11-11T17:22:29;15.25;;;8.20;;
62990;SDS011;49084;48.204;16.202;2022-11-11T17:24:55;18.15;;;8.52;;
62990;SDS011;49084;48.204;16.202;2022-11-11T17:27:20;13.13;;;7.40;;
62990;SDS011;49084;48.204;16.202;2022-11-11T17:29:46;14.82;;;7.10;;
62990;SDS011;49084;48.204;16.202;2022-11-11T17:32:12;13.93;;;7.53;;
62990;SDS011;49084;48.204;16.202;2022-11-11T17:34:38;13.23;;;7.20;;
62990;SDS011;49084;48.204;16.202;2022-11-11T17:37:04;14.65;;;6.85;;
62990;SDS011;49084;48.204;16.202;2022-11-11T17:39:30;14.85;;;8.35;;
62990;SDS011;49084;48.204;16.202;2022-11-11T17:41:55;20.38;;;8.88;;
62990;SDS011;49084;48.204;16.202;2022-11-11T17:44:21;15.75;;;8.55;;
62990;SDS011;49084;48.204;16.202;2022-11-11T17:46:47;12.48;;;8.30;;
62990;SDS011;49084;48.204;16.202;2022-11-11T17:49:13;17.35;;;8.23;;
62990;SDS011;49084;48.204;16.202;2022-11-11T17:51:40;11.38;;;7.72;;
62990;SDS011;49084;48.204;16.202;2022-11-11T17:54:07;18.33;;;8.95;;
62990;SDS011;49084;48.204;16.202;2022-11-11T17:56:36;20.67;;;9.40;;
62990;SDS011;49084;48.204;16.202;2022-11-11T17:59:03;17.13;;;9.82;;
62990;SDS011;49084;48.204;16.202;2022-11-11T18:01:31;16.20;;;9.50;;
62990;SDS011;49084;48.204;16.202;2022-11-11T18:03:57;14.27;;;8.38;;